createdAt,value
2022-10-14T00:11:57.990Z,16.56
2022-10-14T00:32:03.726Z,17.57
2022-10-14T00:52:09.973Z,17.19
2022-10-14T01:12:28.752Z,17.64
2022-10-14T01:32:21.585Z,18.41
2022-10-14T01:52:27.648Z,18.80
2022-10-14T02:12:33.370Z,18.78
2022-10-14T02:32:39.097Z,19.43
2022-10-14T02:52:44.889Z,18.61
2022-10-14T03:12:50.641Z,17.41
2022-10-14T03:32:56.409Z,18.19
2022-10-14T03:53:02.112Z,19.35
2022-10-14T04:13:07.859Z,18.91
2022-10-14T04:33:14.120Z,19.09
2022-10-14T04:53:22.279Z,20.02
2022-10-14T05:13:26.010Z,18.47
2022-10-14T05:33:31.771Z,19.68
2022-10-14T05:53:37.495Z,17.52
2022-10-14T06:13:43.790Z,18.86
2022-10-14T06:33:49.530Z,19.01
2022-10-14T06:53:55.770Z,19.12
2022-10-14T07:14:01.502Z,19.54
2022-10-14T07:34:07.292Z,19.52
2022-10-14T07:54:13.026Z,18.63
2022-10-14T08:14:19.206Z,18.70
2022-10-14T08:34:24.970Z,19.19
2022-10-14T08:54:30.687Z,19.91
2022-10-14T09:14:36.476Z,18.38
2022-10-14T09:34:42.243Z,16.90
2022-10-14T09:54:47.963Z,15.12
2022-10-14T10:14:53.737Z,14.60
2022-10-14T10:34:59.504Z,15.79
2022-10-14T10:55:05.291Z,15.29
2022-10-14T11:15:11.587Z,16.12
2022-10-14T11:35:17.291Z,12.62
2022-10-14T11:55:23.487Z,9.46
2022-10-14T12:35:35.120Z,7.36
2022-10-14T12:55:41.349Z,6.71
2022-10-14T13:15:47.608Z,6.17
2022-10-14T13:35:53.327Z,6.48
2022-10-14T13:55:59.454Z,6.40
2022-10-14T14:16:05.784Z,7.09
2022-10-14T14:36:18.135Z,7.35
2022-10-14T14:56:17.949Z,7.78
2022-10-14T15:16:23.948Z,6.70
2022-10-14T15:36:30.653Z,6.47
2022-10-14T15:56:37.237Z,6.97
2022-10-14T16:16:44.355Z,6.82
2022-10-14T16:36:51.200Z,7.46
2022-10-14T16:56:57.973Z,8.89
2022-10-14T17:17:03.728Z,10.28
2022-10-14T17:37:10.885Z,9.09
2022-10-14T17:57:17.480Z,9.92
2022-10-14T18:17:23.627Z,8.35
2022-10-14T18:37:28.548Z,3.07
2022-10-14T18:57:34.724Z,1.96
2022-10-14T19:17:40.453Z,3.36
2022-10-14T19:37:46.214Z,4.39
2022-10-14T19:57:52.449Z,3.45
2022-10-14T20:17:58.208Z,4.24
2022-10-14T20:38:04.383Z,6.70
2022-10-14T20:58:10.601Z,8.19
2022-10-14T21:18:16.340Z,10.15
2022-10-14T21:38:22.604Z,10.26
2022-10-14T21:58:28.851Z,9.60
2022-10-14T22:18:35.037Z,9.01
2022-10-14T22:38:40.832Z,9.87
2022-10-14T22:58:46.741Z,7.93
2022-10-14T23:18:53.014Z,7.00
2022-10-14T23:38:58.933Z,5.83
2022-10-14T23:59:05.115Z,3.64
